This is the latest recevied weather packets stored in our database for station/object N0TKN. If no packets are shown the sender has not sent any weather packets the latest 10 day(s).
| Time | Temp. | Humidity | Pressure | Rain* | Wind** | Luminosity | Snow |
|---|---|---|---|---|---|---|---|
| 1777555517 | 8.33° C | 99% | 1017.5 hPa | 0 mm | - | 331 W/m² | - |
| 1777554917 | 7.78° C | 99% | 1017.6 hPa | 0 mm | - | 293 W/m² | - |
| 1777554317 | 7.22° C | 99% | 1017.6 hPa | 0 mm | - | 259 W/m² | - |
| 1777553717 | 6.67° C | 99% | 1017.9 hPa | 0 mm | - | 230 W/m² | - |
| 1777553117 | 5.56° C | 99% | 1017.7 hPa | 0 mm | - | 218 W/m² | - |
| 1777552518 | 5.56° C | 99% | 1018.1 hPa | 0 mm | - | 157 W/m² | - |
| 1777551918 | 5° C | 99% | 1018.5 hPa | 0 mm | - | 94 W/m² | - |
| 1777551318 | 4.44° C | 99% | 1018.4 hPa | 0 mm | - | 83 W/m² | - |
| 1777550718 | 4.44° C | 99% | 1018.5 hPa | 0 mm | - | 65 W/m² | - |
| 1777550118 | 4.44° C | 99% | 1018.6 hPa | 0 mm | - | 46 W/m² | - |
| 1777549518 | 3.89° C | 99% | 1019 hPa | 0 mm | - | 28 W/m² | - |
| 1777548916 | 3.89° C | 99% | 1018.7 hPa | 0 mm | - | 19 W/m² | - |
| 1777548316 | 3.89° C | 99% | 1018.8 hPa | 0 mm | - | 10 W/m² | - |
| 1777547716 | 4.44° C | 99% | 1018.9 hPa | 0 mm | - | 4 W/m² | - |
| 1777547116 | 4.44° C | 99% | 1018.8 hPa | 0 mm | - | 1 W/m² | - |
| 1777546516 | 4.44° C | 99% | 1018.7 hPa | 0 mm | - | 0 W/m² | - |
| 1777545916 | 5° C | 99% | 1018.6 hPa | 0 mm | - | 0 W/m² | - |
| 1777545316 | 4.44° C | 99% | 1018.4 hPa | 0 mm | - | 0 W/m² | - |
| 1777544717 | 4.44° C | 99% | 1018.5 hPa | 0 mm | - | 0 W/m² | - |
| 1777544117 | 4.44° C | 99% | 1018.7 hPa | 0 mm | - | 0 W/m² | - |
| 1777543517 | 4.44° C | 99% | 1018.5 hPa | 0 mm | - | 0 W/m² | - |
| 1777542917 | 4.44° C | 99% | 1018.8 hPa | 0 mm | - | 0 W/m² | - |
| 1777542317 | 5° C | 99% | 1018.8 hPa | 0 mm | - | 0 W/m² | - |
| 1777541718 | 5° C | 99% | 1018.3 hPa | 0 mm | - | 0 W/m² | - |
| 1777541118 | 5° C | 99% | 1018.6 hPa | 0 mm | - | 0 W/m² | - |
* Rain latest hour (hover to see other rain measurements)
** Current wind speed in m/s (hover to see current wind gust speed)